Ottoville, OH (45876)

10:45 AM EST on March 02, 2015 (GMT -0500)
KOHDELPH2 | Change Station
CLOSE
Current Station
Personal Weather Station
Location: Delphos, OH
Elevation: 781 ft
Nearby Weather Stations

Elev 781 ft 40.84 °N, 84.35 °W | Updated 7 minutes ago

Partly Cloudy
Partly Cloudy
18.4 °F
Feels Like 18 °F
N
3.0
Wind Variable Wind from SW

Today
High -- | Low -- °F
--% Chance of Precip.
Yesterday
High -- | Low -- °F
Precip. -- in
7:10 AM 6:29 PM
Waxing Gibbous, 92% visible
Pressure 30.53 in
Visibility 5.0 miles
Clouds Clear
Windchill 18 °F
Dew Point 15 °F
Humidity 86%
Rainfall 0.00 in
Snow Depth Not available.
UV 3 out of 12
Pollen .40 out of 12
Air Quality Not available.
Flu Activity Not available.
METAR KAOH 021453Z AUTO 24005KT 5SM HZ CLR M08/M12 A3048 RMK AO2 SLP337 T10831117 51022

More Conditions Fewer Conditions

Pressure 30.53 in
Visibility 5.0 miles
Clouds Clear
Windchill 18 °F
Dew Point 15 °F
Humidity 86%
Rainfall 0.00 in
Snow Depth Not available.
UV 3 out of 12
Pollen .40 out of 12
Air Quality Not available.
Flu Activity Not available.
METAR KAOH 021453Z AUTO 24005KT 5SM HZ CLR M08/M12 A3048 RMK AO2 SLP337 T10831117 51022

More Conditions Fewer Conditions

10-Day Weather Forecast

Almanac

Astronomy

Mar. 02, 2015 Rise Set
Actual Time
Civil Twilight
Nautical Twilight
Astronomical Twilight
Moon
Length of Visible Light
Length of Day
Tomorrow will be .
, % of the Moon is Illuminated

Today's Extremes

State Highs State Lows

Community

WunderPhotos

Upload Photos

1,801,823 photos uploaded!

WunderBlogs® & News

Nearby

Air Quality

  Air Quality AQ Index Pollutant
Not available.

Snow Depth

Station Depth Elevation

Earthquake Activity

City Distance Mag. Time & Date
Minimum magnitude displayed is 2.5.

Coastal Water Temperatures

Place Temperature

Nearby Weather Stations